sensor_id;sensor_type;location;lat;lon;timestamp;P1;durP1;ratioP1;P2;durP2;ratioP2
14094;SDS011;18096;48.142;16.290;2024-02-14T00:01:22;2.07;;;1.97;;
14094;SDS011;18096;48.142;16.290;2024-02-14T00:03:48;2.07;;;1.97;;
14094;SDS011;18096;48.142;16.290;2024-02-14T00:06:14;6.73;;;2.17;;
14094;SDS011;18096;48.142;16.290;2024-02-14T00:08:40;1.73;;;1.60;;
14094;SDS011;18096;48.142;16.290;2024-02-14T00:11:05;1.93;;;1.83;;
14094;SDS011;18096;48.142;16.290;2024-02-14T00:13:31;1.83;;;1.73;;
14094;SDS011;18096;48.142;16.290;2024-02-14T00:15:59;3.70;;;1.87;;
14094;SDS011;18096;48.142;16.290;2024-02-14T00:18:25;1.80;;;1.80;;
14094;SDS011;18096;48.142;16.290;2024-02-14T00:20:52;2.03;;;1.80;;
14094;SDS011;18096;48.142;16.290;2024-02-14T00:23:18;5.80;;;2.77;;
14094;SDS011;18096;48.142;16.290;2024-02-14T00:25:43;2.60;;;1.80;;
14094;SDS011;18096;48.142;16.290;2024-02-14T00:28:09;2.17;;;1.73;;
14094;SDS011;18096;48.142;16.290;2024-02-14T00:30:34;6.33;;;2.00;;
14094;SDS011;18096;48.142;16.290;2024-02-14T00:33:00;2.80;;;2.50;;
14094;SDS011;18096;48.142;16.290;2024-02-14T00:35:26;1.63;;;1.63;;
14094;SDS011;18096;48.142;16.290;2024-02-14T00:37:52;4.83;;;2.00;;
14094;SDS011;18096;48.142;16.290;2024-02-14T00:40:17;2.03;;;1.93;;
14094;SDS011;18096;48.142;16.290;2024-02-14T00:42:43;4.47;;;1.77;;
14094;SDS011;18096;48.142;16.290;2024-02-14T00:45:09;4.87;;;1.87;;
14094;SDS011;18096;48.142;16.290;2024-02-14T00:47:35;2.47;;;2.27;;
14094;SDS011;18096;48.142;16.290;2024-02-14T00:50:01;5.70;;;1.80;;
14094;SDS011;18096;48.142;16.290;2024-02-14T00:52:28;1.77;;;1.67;;
14094;SDS011;18096;48.142;16.290;2024-02-14T00:54:54;2.60;;;1.70;;
14094;SDS011;18096;48.142;16.290;2024-02-14T00:57:20;2.93;;;2.03;;
14094;SDS011;18096;48.142;16.290;2024-02-14T00:59:50;3.90;;;2.47;;
14094;SDS011;18096;48.142;16.290;2024-02-14T01:02:21;7.70;;;1.53;;
14094;SDS011;18096;48.142;16.290;2024-02-14T01:04:47;2.57;;;2.37;;
14094;SDS011;18096;48.142;16.290;2024-02-14T01:07:12;5.50;;;2.30;;
14094;SDS011;18096;48.142;16.290;2024-02-14T01:09:38;4.07;;;1.90;;
14094;SDS011;18096;48.142;16.290;2024-02-14T01:12:04;2.83;;;1.67;;
14094;SDS011;18096;48.142;16.290;2024-02-14T01:14:30;2.47;;;1.60;;
14094;SDS011;18096;48.142;16.290;2024-02-14T01:16:56;1.93;;;1.83;;
14094;SDS011;18096;48.142;16.290;2024-02-14T01:19:22;1.87;;;1.77;;
14094;SDS011;18096;48.142;16.290;2024-02-14T01:21:53;3.00;;;2.33;;
14094;SDS011;18096;48.142;16.290;2024-02-14T01:24:20;2.83;;;1.33;;
14094;SDS011;18096;48.142;16.290;2024-02-14T01:26:47;3.40;;;2.13;;
14094;SDS011;18096;48.142;16.290;2024-02-14T01:29:13;2.40;;;2.30;;
14094;SDS011;18096;48.142;16.290;2024-02-14T01:31:38;1.73;;;1.63;;
14094;SDS011;18096;48.142;16.290;2024-02-14T01:34:04;1.70;;;1.60;;
14094;SDS011;18096;48.142;16.290;2024-02-14T01:36:30;2.07;;;1.97;;
14094;SDS011;18096;48.142;16.290;2024-02-14T01:38:55;2.00;;;1.90;;
14094;SDS011;18096;48.142;16.290;2024-02-14T01:41:21;2.67;;;1.60;;
14094;SDS011;18096;48.142;16.290;2024-02-14T01:43:47;2.20;;;2.00;;
14094;SDS011;18096;48.142;16.290;2024-02-14T01:46:13;10.13;;;2.77;;
14094;SDS011;18096;48.142;16.290;2024-02-14T01:48:39;1.87;;;1.77;;
14094;SDS011;18096;48.142;16.290;2024-02-14T01:51:06;1.90;;;1.80;;
14094;SDS011;18096;48.142;16.290;2024-02-14T01:53:33;1.50;;;1.50;;
14094;SDS011;18096;48.142;16.290;2024-02-14T01:56:01;4.80;;;1.80;;
14094;SDS011;18096;48.142;16.290;2024-02-14T01:58:27;1.67;;;1.57;;
14094;SDS011;18096;48.142;16.290;2024-02-14T02:00:54;1.77;;;1.77;;
14094;SDS011;18096;48.142;16.290;2024-02-14T02:03:22;3.40;;;1.70;;
14094;SDS011;18096;48.142;16.290;2024-02-14T02:05:49;1.73;;;1.43;;
14094;SDS011;18096;48.142;16.290;2024-02-14T02:08:14;1.40;;;1.40;;
14094;SDS011;18096;48.142;16.290;2024-02-14T02:10:40;1.80;;;1.70;;
14094;SDS011;18096;48.142;16.290;2024-02-14T02:13:06;1.50;;;1.40;;
14094;SDS011;18096;48.142;16.290;2024-02-14T02:15:34;1.67;;;1.67;;
14094;SDS011;18096;48.142;16.290;2024-02-14T02:18:00;5.90;;;2.10;;
14094;SDS011;18096;48.142;16.290;2024-02-14T02:20:30;2.30;;;1.43;;
14094;SDS011;18096;48.142;16.290;2024-02-14T02:22:57;2.40;;;1.80;;
14094;SDS011;18096;48.142;16.290;2024-02-14T02:25:23;3.80;;;2.07;;
14094;SDS011;18096;48.142;16.290;2024-02-14T02:27:51;2.43;;;2.33;;
14094;SDS011;18096;48.142;16.290;2024-02-14T02:30:21;2.00;;;1.90;;
14094;SDS011;18096;48.142;16.290;2024-02-14T02:32:47;1.77;;;1.60;;
14094;SDS011;18096;48.142;16.290;2024-02-14T02:35:15;2.40;;;2.20;;
14094;SDS011;18096;48.142;16.290;2024-02-14T02:37:41;1.83;;;1.73;;
14094;SDS011;18096;48.142;16.290;2024-02-14T02:40:07;1.67;;;1.57;;
14094;SDS011;18096;48.142;16.290;2024-02-14T02:42:35;3.70;;;1.50;;
14094;SDS011;18096;48.142;16.290;2024-02-14T02:45:01;2.67;;;2.00;;
14094;SDS011;18096;48.142;16.290;2024-02-14T02:47:30;1.63;;;1.53;;
14094;SDS011;18096;48.142;16.290;2024-02-14T02:49:56;2.30;;;1.67;;
14094;SDS011;18096;48.142;16.290;2024-02-14T02:52:24;2.93;;;1.80;;
14094;SDS011;18096;48.142;16.290;2024-02-14T02:54:50;1.80;;;1.70;;
14094;SDS011;18096;48.142;16.290;2024-02-14T02:57:17;1.60;;;1.50;;
14094;SDS011;18096;48.142;16.290;2024-02-14T02:59:44;2.50;;;1.57;;
14094;SDS011;18096;48.142;16.290;2024-02-14T03:02:11;2.00;;;1.63;;
14094;SDS011;18096;48.142;16.290;2024-02-14T03:04:37;1.63;;;1.63;;
14094;SDS011;18096;48.142;16.290;2024-02-14T03:07:03;3.80;;;2.70;;
14094;SDS011;18096;48.142;16.290;2024-02-14T03:09:29;1.30;;;1.30;;
14094;SDS011;18096;48.142;16.290;2024-02-14T03:11:54;1.87;;;1.60;;
14094;SDS011;18096;48.142;16.290;2024-02-14T03:14:21;2.80;;;1.50;;
14094;SDS011;18096;48.142;16.290;2024-02-14T03:16:47;2.30;;;1.93;;
14094;SDS011;18096;48.142;16.290;2024-02-14T03:19:13;1.50;;;1.40;;
14094;SDS011;18096;48.142;16.290;2024-02-14T03:21:39;1.60;;;1.60;;
14094;SDS011;18096;48.142;16.290;2024-02-14T03:24:05;2.30;;;2.20;;
14094;SDS011;18096;48.142;16.290;2024-02-14T03:26:34;1.60;;;1.50;;
14094;SDS011;18096;48.142;16.290;2024-02-14T03:29:02;2.00;;;1.33;;
14094;SDS011;18096;48.142;16.290;2024-02-14T03:31:31;1.27;;;1.20;;
14094;SDS011;18096;48.142;16.290;2024-02-14T03:33:57;1.93;;;1.60;;
14094;SDS011;18096;48.142;16.290;2024-02-14T03:36:23;1.40;;;1.30;;
14094;SDS011;18096;48.142;16.290;2024-02-14T03:38:52;1.50;;;1.47;;
14094;SDS011;18096;48.142;16.290;2024-02-14T03:41:17;2.70;;;2.50;;
14094;SDS011;18096;48.142;16.290;2024-02-14T03:43:43;1.30;;;1.30;;
14094;SDS011;18096;48.142;16.290;2024-02-14T03:46:09;1.80;;;1.70;;
14094;SDS011;18096;48.142;16.290;2024-02-14T03:48:37;2.30;;;1.30;;
14094;SDS011;18096;48.142;16.290;2024-02-14T03:51:03;1.90;;;1.80;;
14094;SDS011;18096;48.142;16.290;2024-02-14T03:53:29;2.13;;;1.53;;
14094;SDS011;18096;48.142;16.290;2024-02-14T03:55:58;2.50;;;1.80;;
14094;SDS011;18096;48.142;16.290;2024-02-14T03:58:24;13.77;;;2.47;;
14094;SDS011;18096;48.142;16.290;2024-02-14T04:00:49;5.53;;;2.70;;
14094;SDS011;18096;48.142;16.290;2024-02-14T04:03:16;1.67;;;1.57;;
14094;SDS011;18096;48.142;16.290;2024-02-14T04:05:42;1.87;;;1.77;;
14094;SDS011;18096;48.142;16.290;2024-02-14T04:08:07;1.80;;;1.70;;
14094;SDS011;18096;48.142;16.290;2024-02-14T04:10:38;11.00;;;1.83;;
14094;SDS011;18096;48.142;16.290;2024-02-14T04:13:04;2.60;;;2.40;;
14094;SDS011;18096;48.142;16.290;2024-02-14T04:15:33;1.53;;;1.53;;
14094;SDS011;18096;48.142;16.290;2024-02-14T04:17:58;2.57;;;2.37;;
14094;SDS011;18096;48.142;16.290;2024-02-14T04:20:26;4.10;;;2.60;;
14094;SDS011;18096;48.142;16.290;2024-02-14T04:22:52;4.50;;;1.57;;
14094;SDS011;18096;48.142;16.290;2024-02-14T04:25:17;3.20;;;1.90;;
14094;SDS011;18096;48.142;16.290;2024-02-14T04:27:43;1.80;;;1.70;;
14094;SDS011;18096;48.142;16.290;2024-02-14T04:30:10;6.03;;;1.63;;
14094;SDS011;18096;48.142;16.290;2024-02-14T04:32:36;2.30;;;1.27;;
14094;SDS011;18096;48.142;16.290;2024-02-14T04:35:02;3.80;;;1.77;;
14094;SDS011;18096;48.142;16.290;2024-02-14T04:37:28;5.13;;;2.63;;
14094;SDS011;18096;48.142;16.290;2024-02-14T04:39:54;1.87;;;1.77;;
14094;SDS011;18096;48.142;16.290;2024-02-14T04:42:20;3.73;;;1.57;;
14094;SDS011;18096;48.142;16.290;2024-02-14T04:44:46;1.83;;;1.47;;
14094;SDS011;18096;48.142;16.290;2024-02-14T04:47:11;1.73;;;1.63;;
14094;SDS011;18096;48.142;16.290;2024-02-14T04:49:37;3.67;;;1.80;;
14094;SDS011;18096;48.142;16.290;2024-02-14T04:52:03;3.43;;;2.03;;
14094;SDS011;18096;48.142;16.290;2024-02-14T04:54:29;2.30;;;1.33;;
14094;SDS011;18096;48.142;16.290;2024-02-14T04:56:55;1.57;;;1.47;;
14094;SDS011;18096;48.142;16.290;2024-02-14T04:59:21;1.40;;;1.40;;
14094;SDS011;18096;48.142;16.290;2024-02-14T05:01:47;2.60;;;1.70;;
14094;SDS011;18096;48.142;16.290;2024-02-14T05:04:13;2.87;;;1.57;;
14094;SDS011;18096;48.142;16.290;2024-02-14T05:06:39;2.30;;;2.10;;
14094;SDS011;18096;48.142;16.290;2024-02-14T05:09:05;1.57;;;1.47;;
14094;SDS011;18096;48.142;16.290;2024-02-14T05:11:31;1.73;;;1.60;;
14094;SDS011;18096;48.142;16.290;2024-02-14T05:13:56;2.50;;;2.40;;
14094;SDS011;18096;48.142;16.290;2024-02-14T05:16:23;2.87;;;1.40;;
14094;SDS011;18096;48.142;16.290;2024-02-14T05:18:48;1.80;;;1.70;;
14094;SDS011;18096;48.142;16.290;2024-02-14T05:21:14;5.97;;;2.53;;
14094;SDS011;18096;48.142;16.290;2024-02-14T05:23:40;2.63;;;2.47;;
14094;SDS011;18096;48.142;16.290;2024-02-14T05:26:06;1.77;;;1.77;;
14094;SDS011;18096;48.142;16.290;2024-02-14T05:28:33;1.93;;;1.77;;
14094;SDS011;18096;48.142;16.290;2024-02-14T05:30:59;1.70;;;1.60;;
14094;SDS011;18096;48.142;16.290;2024-02-14T05:33:25;1.60;;;1.50;;
14094;SDS011;18096;48.142;16.290;2024-02-14T05:35:51;9.33;;;2.20;;
14094;SDS011;18096;48.142;16.290;2024-02-14T05:38:17;1.63;;;1.63;;
14094;SDS011;18096;48.142;16.290;2024-02-14T05:40:47;5.50;;;1.13;;
14094;SDS011;18096;48.142;16.290;2024-02-14T05:43:13;1.90;;;1.47;;
14094;SDS011;18096;48.142;16.290;2024-02-14T05:45:39;0.97;;;0.97;;
14094;SDS011;18096;48.142;16.290;2024-02-14T05:48:06;1.20;;;1.10;;
14094;SDS011;18096;48.142;16.290;2024-02-14T05:50:32;1.60;;;1.50;;
14094;SDS011;18096;48.142;16.290;2024-02-14T05:52:59;2.30;;;2.13;;
14094;SDS011;18096;48.142;16.290;2024-02-14T05:55:25;2.80;;;1.90;;
14094;SDS011;18096;48.142;16.290;2024-02-14T05:57:55;1.23;;;1.23;;
14094;SDS011;18096;48.142;16.290;2024-02-14T06:00:35;2.00;;;1.90;;
14094;SDS011;18096;48.142;16.290;2024-02-14T06:03:01;1.30;;;1.20;;
14094;SDS011;18096;48.142;16.290;2024-02-14T06:05:27;1.67;;;1.57;;
14094;SDS011;18096;48.142;16.290;2024-02-14T06:07:52;3.37;;;2.13;;
14094;SDS011;18096;48.142;16.290;2024-02-14T06:10:18;2.07;;;1.50;;
14094;SDS011;18096;48.142;16.290;2024-02-14T06:12:44;3.60;;;1.37;;
14094;SDS011;18096;48.142;16.290;2024-02-14T06:15:11;1.37;;;1.27;;
14094;SDS011;18096;48.142;16.290;2024-02-14T06:17:37;2.40;;;2.07;;
14094;SDS011;18096;48.142;16.290;2024-02-14T06:20:03;2.70;;;2.00;;
14094;SDS011;18096;48.142;16.290;2024-02-14T06:22:33;2.50;;;2.27;;
14094;SDS011;18096;48.142;16.290;2024-02-14T06:24:59;2.23;;;2.13;;
14094;SDS011;18096;48.142;16.290;2024-02-14T06:27:25;3.13;;;1.93;;
14094;SDS011;18096;48.142;16.290;2024-02-14T06:29:52;5.80;;;1.60;;
14094;SDS011;18096;48.142;16.290;2024-02-14T06:32:18;2.37;;;2.17;;
14094;SDS011;18096;48.142;16.290;2024-02-14T06:34:44;9.20;;;1.97;;
14094;SDS011;18096;48.142;16.290;2024-02-14T06:37:09;3.20;;;2.30;;
14094;SDS011;18096;48.142;16.290;2024-02-14T06:39:35;1.50;;;1.40;;
14094;SDS011;18096;48.142;16.290;2024-02-14T06:42:01;2.33;;;1.80;;
14094;SDS011;18096;48.142;16.290;2024-02-14T06:44:26;1.70;;;1.70;;
14094;SDS011;18096;48.142;16.290;2024-02-14T06:46:52;3.10;;;1.80;;
14094;SDS011;18096;48.142;16.290;2024-02-14T06:49:18;2.37;;;1.73;;
14094;SDS011;18096;48.142;16.290;2024-02-14T06:51:43;5.27;;;2.10;;
14094;SDS011;18096;48.142;16.290;2024-02-14T06:54:10;2.90;;;2.00;;
14094;SDS011;18096;48.142;16.290;2024-02-14T06:56:37;4.73;;;1.93;;
14094;SDS011;18096;48.142;16.290;2024-02-14T06:59:03;5.40;;;1.67;;
14094;SDS011;18096;48.142;16.290;2024-02-14T07:01:31;2.90;;;2.17;;
14094;SDS011;18096;48.142;16.290;2024-02-14T07:03:58;5.30;;;1.70;;
14094;SDS011;18096;48.142;16.290;2024-02-14T07:06:26;2.43;;;2.33;;
14094;SDS011;18096;48.142;16.290;2024-02-14T07:08:52;3.90;;;3.60;;
14094;SDS011;18096;48.142;16.290;2024-02-14T07:11:19;2.00;;;1.90;;
14094;SDS011;18096;48.142;16.290;2024-02-14T07:13:44;2.33;;;2.17;;
14094;SDS011;18096;48.142;16.290;2024-02-14T07:16:10;2.43;;;1.87;;
14094;SDS011;18096;48.142;16.290;2024-02-14T07:18:36;3.17;;;2.33;;
14094;SDS011;18096;48.142;16.290;2024-02-14T07:21:02;2.23;;;2.13;;
14094;SDS011;18096;48.142;16.290;2024-02-14T07:23:30;5.23;;;2.37;;
14094;SDS011;18096;48.142;16.290;2024-02-14T07:25:57;5.10;;;2.60;;
14094;SDS011;18096;48.142;16.290;2024-02-14T07:28:23;3.60;;;2.87;;
14094;SDS011;18096;48.142;16.290;2024-02-14T07:30:48;2.47;;;2.27;;
14094;SDS011;18096;48.142;16.290;2024-02-14T07:33:14;2.40;;;2.20;;
14094;SDS011;18096;48.142;16.290;2024-02-14T07:35:40;3.00;;;2.17;;
14094;SDS011;18096;48.142;16.290;2024-02-14T07:38:07;5.40;;;4.20;;
14094;SDS011;18096;48.142;16.290;2024-02-14T07:40:33;5.33;;;2.50;;
14094;SDS011;18096;48.142;16.290;2024-02-14T07:42:59;6.70;;;2.10;;
14094;SDS011;18096;48.142;16.290;2024-02-14T07:45:25;3.10;;;2.17;;
14094;SDS011;18096;48.142;16.290;2024-02-14T07:47:52;2.20;;;2.10;;
14094;SDS011;18096;48.142;16.290;2024-02-14T07:50:18;4.20;;;2.40;;
14094;SDS011;18096;48.142;16.290;2024-02-14T07:52:44;1.77;;;1.60;;
14094;SDS011;18096;48.142;16.290;2024-02-14T07:55:10;4.93;;;2.30;;
14094;SDS011;18096;48.142;16.290;2024-02-14T07:57:41;2.63;;;2.20;;
14094;SDS011;18096;48.142;16.290;2024-02-14T08:00:07;6.90;;;2.80;;
14094;SDS011;18096;48.142;16.290;2024-02-14T08:02:34;2.47;;;2.33;;
14094;SDS011;18096;48.142;16.290;2024-02-14T08:05:00;2.20;;;2.00;;
14094;SDS011;18096;48.142;16.290;2024-02-14T08:07:26;4.70;;;2.57;;
14094;SDS011;18096;48.142;16.290;2024-02-14T08:09:52;4.70;;;2.40;;
14094;SDS011;18096;48.142;16.290;2024-02-14T08:12:18;8.67;;;2.50;;
14094;SDS011;18096;48.142;16.290;2024-02-14T08:14:44;2.60;;;2.30;;
14094;SDS011;18096;48.142;16.290;2024-02-14T08:17:09;2.40;;;2.00;;
14094;SDS011;18096;48.142;16.290;2024-02-14T08:19:36;4.63;;;3.17;;
14094;SDS011;18096;48.142;16.290;2024-02-14T08:22:01;10.73;;;3.60;;
14094;SDS011;18096;48.142;16.290;2024-02-14T08:24:27;3.50;;;3.20;;
14094;SDS011;18096;48.142;16.290;2024-02-14T08:26:53;8.57;;;3.73;;
14094;SDS011;18096;48.142;16.290;2024-02-14T08:29:19;14.17;;;3.47;;
14094;SDS011;18096;48.142;16.290;2024-02-14T08:31:45;4.50;;;3.30;;
14094;SDS011;18096;48.142;16.290;2024-02-14T08:34:11;4.53;;;3.70;;
14094;SDS011;18096;48.142;16.290;2024-02-14T08:36:38;11.83;;;4.10;;
14094;SDS011;18096;48.142;16.290;2024-02-14T08:39:08;3.33;;;3.03;;
14094;SDS011;18096;48.142;16.290;2024-02-14T08:41:35;7.67;;;3.90;;
14094;SDS011;18096;48.142;16.290;2024-02-14T08:44:01;7.40;;;3.17;;
14094;SDS011;18096;48.142;16.290;2024-02-14T08:46:27;5.43;;;2.90;;
14094;SDS011;18096;48.142;16.290;2024-02-14T08:48:53;3.30;;;2.47;;
14094;SDS011;18096;48.142;16.290;2024-02-14T08:51:19;10.23;;;3.03;;
14094;SDS011;18096;48.142;16.290;2024-02-14T08:53:45;11.90;;;2.30;;
14094;SDS011;18096;48.142;16.290;2024-02-14T08:56:11;4.40;;;2.30;;
14094;SDS011;18096;48.142;16.290;2024-02-14T08:58:37;10.43;;;2.60;;
14094;SDS011;18096;48.142;16.290;2024-02-14T09:01:03;5.20;;;2.70;;
14094;SDS011;18096;48.142;16.290;2024-02-14T09:03:29;2.60;;;2.50;;
14094;SDS011;18096;48.142;16.290;2024-02-14T09:05:56;10.93;;;2.80;;
14094;SDS011;18096;48.142;16.290;2024-02-14T09:08:22;9.30;;;2.90;;
14094;SDS011;18096;48.142;16.290;2024-02-14T09:10:49;5.20;;;2.20;;
14094;SDS011;18096;48.142;16.290;2024-02-14T09:13:17;2.77;;;2.50;;
14094;SDS011;18096;48.142;16.290;2024-02-14T09:15:43;4.17;;;2.80;;
14094;SDS011;18096;48.142;16.290;2024-02-14T09:18:09;9.90;;;3.13;;
14094;SDS011;18096;48.142;16.290;2024-02-14T09:20:34;5.87;;;3.07;;
14094;SDS011;18096;48.142;16.290;2024-02-14T09:23:02;3.33;;;2.47;;
14094;SDS011;18096;48.142;16.290;2024-02-14T09:25:28;3.30;;;3.00;;
14094;SDS011;18096;48.142;16.290;2024-02-14T09:27:54;23.97;;;2.53;;
14094;SDS011;18096;48.142;16.290;2024-02-14T09:30:19;1.83;;;1.63;;
14094;SDS011;18096;48.142;16.290;2024-02-14T09:32:46;9.83;;;2.20;;
14094;SDS011;18096;48.142;16.290;2024-02-14T09:35:12;1.93;;;1.80;;
14094;SDS011;18096;48.142;16.290;2024-02-14T09:37:38;6.30;;;3.90;;
14094;SDS011;18096;48.142;16.290;2024-02-14T09:40:05;4.97;;;2.13;;
14094;SDS011;18096;48.142;16.290;2024-02-14T09:42:37;2.37;;;2.20;;
14094;SDS011;18096;48.142;16.290;2024-02-14T09:45:08;6.17;;;2.20;;
14094;SDS011;18096;48.142;16.290;2024-02-14T09:47:34;4.73;;;1.93;;
14094;SDS011;18096;48.142;16.290;2024-02-14T09:50:01;6.53;;;2.17;;
14094;SDS011;18096;48.142;16.290;2024-02-14T09:52:32;5.73;;;1.70;;
14094;SDS011;18096;48.142;16.290;2024-02-14T09:54:58;15.93;;;2.53;;
14094;SDS011;18096;48.142;16.290;2024-02-14T09:57:24;4.70;;;2.63;;
14094;SDS011;18096;48.142;16.290;2024-02-14T09:59:53;3.37;;;2.10;;
14094;SDS011;18096;48.142;16.290;2024-02-14T10:02:20;5.03;;;2.20;;
14094;SDS011;18096;48.142;16.290;2024-02-14T10:04:46;4.63;;;2.40;;
14094;SDS011;18096;48.142;16.290;2024-02-14T10:07:12;3.43;;;1.90;;
14094;SDS011;18096;48.142;16.290;2024-02-14T10:09:41;3.03;;;1.60;;
14094;SDS011;18096;48.142;16.290;2024-02-14T10:12:08;1.87;;;1.77;;
14094;SDS011;18096;48.142;16.290;2024-02-14T10:14:34;3.27;;;1.70;;
14094;SDS011;18096;48.142;16.290;2024-02-14T10:17:01;5.00;;;2.27;;
14094;SDS011;18096;48.142;16.290;2024-02-14T10:19:28;7.50;;;2.23;;
14094;SDS011;18096;48.142;16.290;2024-02-14T10:22:00;2.53;;;2.27;;
14094;SDS011;18096;48.142;16.290;2024-02-14T10:24:30;1.93;;;1.70;;
14094;SDS011;18096;48.142;16.290;2024-02-14T10:26:56;1.47;;;1.37;;
14094;SDS011;18096;48.142;16.290;2024-02-14T10:29:24;11.03;;;1.90;;
14094;SDS011;18096;48.142;16.290;2024-02-14T10:31:50;5.07;;;1.87;;
14094;SDS011;18096;48.142;16.290;2024-02-14T10:34:16;2.40;;;1.27;;
14094;SDS011;18096;48.142;16.290;2024-02-14T10:36:45;1.53;;;1.43;;
14094;SDS011;18096;48.142;16.290;2024-02-14T10:39:12;2.30;;;0.97;;
14094;SDS011;18096;48.142;16.290;2024-02-14T10:41:40;1.13;;;1.13;;
14094;SDS011;18096;48.142;16.290;2024-02-14T10:44:06;3.43;;;1.70;;
14094;SDS011;18096;48.142;16.290;2024-02-14T10:46:32;1.13;;;1.03;;
14094;SDS011;18096;48.142;16.290;2024-02-14T10:49:04;6.47;;;2.13;;
14094;SDS011;18096;48.142;16.290;2024-02-14T10:51:32;1.93;;;0.90;;
14094;SDS011;18096;48.142;16.290;2024-02-14T10:54:00;2.13;;;1.53;;
14094;SDS011;18096;48.142;16.290;2024-02-14T10:56:34;1.83;;;0.90;;
14094;SDS011;18096;48.142;16.290;2024-02-14T10:59:04;13.10;;;1.43;;
14094;SDS011;18096;48.142;16.290;2024-02-14T11:01:31;1.63;;;1.40;;
14094;SDS011;18096;48.142;16.290;2024-02-14T11:04:00;2.20;;;0.90;;
14094;SDS011;18096;48.142;16.290;2024-02-14T11:06:29;2.93;;;1.50;;
14094;SDS011;18096;48.142;16.290;2024-02-14T11:09:00;4.17;;;1.13;;
14094;SDS011;18096;48.142;16.290;2024-02-14T11:11:32;0.90;;;0.90;;
14094;SDS011;18096;48.142;16.290;2024-02-14T11:13:58;2.30;;;0.97;;
14094;SDS011;18096;48.142;16.290;2024-02-14T11:16:28;1.57;;;1.30;;
14094;SDS011;18096;48.142;16.290;2024-02-14T11:19:05;1.10;;;1.10;;
14094;SDS011;18096;48.142;16.290;2024-02-14T11:21:35;1.17;;;1.07;;
14094;SDS011;18096;48.142;16.290;2024-02-14T11:24:11;3.67;;;1.50;;
14094;SDS011;18096;48.142;16.290;2024-02-14T11:29:05;9.20;;;1.50;;
14094;SDS011;18096;48.142;16.290;2024-02-14T11:31:33;2.00;;;1.50;;
14094;SDS011;18096;48.142;16.290;2024-02-14T11:34:04;1.53;;;1.13;;
14094;SDS011;18096;48.142;16.290;2024-02-14T11:36:31;13.60;;;1.10;;
14094;SDS011;18096;48.142;16.290;2024-02-14T11:38:58;5.43;;;1.80;;
14094;SDS011;18096;48.142;16.290;2024-02-14T11:41:27;3.70;;;0.90;;
14094;SDS011;18096;48.142;16.290;2024-02-14T11:43:53;4.73;;;1.10;;
14094;SDS011;18096;48.142;16.290;2024-02-14T11:46:18;3.20;;;2.20;;
14094;SDS011;18096;48.142;16.290;2024-02-14T11:48:44;0.80;;;0.80;;
14094;SDS011;18096;48.142;16.290;2024-02-14T11:51:13;3.50;;;1.47;;
14094;SDS011;18096;48.142;16.290;2024-02-14T11:53:40;1.67;;;0.77;;
14094;SDS011;18096;48.142;16.290;2024-02-14T11:56:06;1.87;;;1.47;;
14094;SDS011;18096;48.142;16.290;2024-02-14T11:58:31;1.93;;;1.40;;
14094;SDS011;18096;48.142;16.290;2024-02-14T12:00:57;3.40;;;1.13;;
14094;SDS011;18096;48.142;16.290;2024-02-14T12:03:23;14.50;;;1.40;;
14094;SDS011;18096;48.142;16.290;2024-02-14T12:05:51;0.80;;;0.53;;
14094;SDS011;18096;48.142;16.290;2024-02-14T12:08:17;1.57;;;0.80;;
14094;SDS011;18096;48.142;16.290;2024-02-14T12:10:44;2.30;;;0.70;;
14094;SDS011;18096;48.142;16.290;2024-02-14T12:13:13;1.00;;;0.60;;
14094;SDS011;18096;48.142;16.290;2024-02-14T12:18:12;0.97;;;0.67;;
14094;SDS011;18096;48.142;16.290;2024-02-14T12:20:41;1.70;;;1.07;;
14094;SDS011;18096;48.142;16.290;2024-02-14T12:23:13;2.77;;;2.10;;
14094;SDS011;18096;48.142;16.290;2024-02-14T12:25:43;0.90;;;0.70;;
14094;SDS011;18096;48.142;16.290;2024-02-14T12:28:15;1.50;;;0.60;;
14094;SDS011;18096;48.142;16.290;2024-02-14T12:30:51;0.90;;;0.73;;
14094;SDS011;18096;48.142;16.290;2024-02-14T12:33:21;1.33;;;0.70;;
14094;SDS011;18096;48.142;16.290;2024-02-14T12:35:49;1.03;;;0.50;;
14094;SDS011;18096;48.142;16.290;2024-02-14T12:38:16;3.50;;;0.90;;
14094;SDS011;18096;48.142;16.290;2024-02-14T12:40:44;3.90;;;0.80;;
14094;SDS011;18096;48.142;16.290;2024-02-14T12:43:12;1.00;;;0.90;;
14094;SDS011;18096;48.142;16.290;2024-02-14T12:45:39;2.70;;;0.70;;
14094;SDS011;18096;48.142;16.290;2024-02-14T12:48:06;1.03;;;0.50;;
14094;SDS011;18096;48.142;16.290;2024-02-14T12:50:35;0.70;;;0.60;;
14094;SDS011;18096;48.142;16.290;2024-02-14T12:53:10;11.10;;;1.30;;
14094;SDS011;18096;48.142;16.290;2024-02-14T12:55:35;2.77;;;1.20;;
14094;SDS011;18096;48.142;16.290;2024-02-14T12:58:01;1.13;;;0.77;;
14094;SDS011;18096;48.142;16.290;2024-02-14T13:00:27;1.33;;;0.70;;
14094;SDS011;18096;48.142;16.290;2024-02-14T13:02:54;1.97;;;0.80;;
14094;SDS011;18096;48.142;16.290;2024-02-14T13:05:20;2.30;;;1.20;;
14094;SDS011;18096;48.142;16.290;2024-02-14T13:07:46;1.97;;;0.50;;
14094;SDS011;18096;48.142;16.290;2024-02-14T13:10:12;1.10;;;1.00;;
14094;SDS011;18096;48.142;16.290;2024-02-14T13:12:38;1.20;;;0.80;;
14094;SDS011;18096;48.142;16.290;2024-02-14T13:15:04;1.03;;;0.90;;
14094;SDS011;18096;48.142;16.290;2024-02-14T13:17:30;0.70;;;0.70;;
14094;SDS011;18096;48.142;16.290;2024-02-14T13:19:56;0.93;;;0.90;;
14094;SDS011;18096;48.142;16.290;2024-02-14T13:22:24;0.73;;;0.73;;
14094;SDS011;18096;48.142;16.290;2024-02-14T13:24:50;0.97;;;0.97;;
14094;SDS011;18096;48.142;16.290;2024-02-14T13:27:16;1.33;;;0.70;;
14094;SDS011;18096;48.142;16.290;2024-02-14T13:29:42;2.93;;;0.90;;
14094;SDS011;18096;48.142;16.290;2024-02-14T13:32:08;1.47;;;0.87;;
14094;SDS011;18096;48.142;16.290;2024-02-14T13:34:34;1.00;;;1.00;;
14094;SDS011;18096;48.142;16.290;2024-02-14T13:37:00;1.60;;;0.80;;
14094;SDS011;18096;48.142;16.290;2024-02-14T13:39:27;1.63;;;0.80;;
14094;SDS011;18096;48.142;16.290;2024-02-14T13:41:53;0.70;;;0.70;;
14094;SDS011;18096;48.142;16.290;2024-02-14T13:44:20;2.30;;;0.70;;
14094;SDS011;18096;48.142;16.290;2024-02-14T13:46:45;5.70;;;0.80;;
14094;SDS011;18096;48.142;16.290;2024-02-14T13:49:12;0.80;;;0.73;;
14094;SDS011;18096;48.142;16.290;2024-02-14T13:51:42;6.60;;;1.13;;
14094;SDS011;18096;48.142;16.290;2024-02-14T13:54:08;3.17;;;1.20;;
14094;SDS011;18096;48.142;16.290;2024-02-14T13:56:35;1.83;;;0.80;;
14094;SDS011;18096;48.142;16.290;2024-02-14T13:59:02;1.33;;;0.80;;
14094;SDS011;18096;48.142;16.290;2024-02-14T14:01:27;1.27;;;1.00;;
14094;SDS011;18096;48.142;16.290;2024-02-14T14:03:53;2.50;;;0.90;;
14094;SDS011;18096;48.142;16.290;2024-02-14T14:06:20;0.70;;;0.70;;
14094;SDS011;18096;48.142;16.290;2024-02-14T14:08:49;1.53;;;1.43;;
14094;SDS011;18096;48.142;16.290;2024-02-14T14:11:16;0.67;;;0.67;;
14094;SDS011;18096;48.142;16.290;2024-02-14T14:13:42;1.70;;;1.03;;
14094;SDS011;18096;48.142;16.290;2024-02-14T14:16:08;0.77;;;0.77;;
14094;SDS011;18096;48.142;16.290;2024-02-14T14:18:36;0.70;;;0.70;;
14094;SDS011;18096;48.142;16.290;2024-02-14T14:21:02;1.47;;;1.20;;
14094;SDS011;18096;48.142;16.290;2024-02-14T14:23:28;5.03;;;1.10;;
14094;SDS011;18096;48.142;16.290;2024-02-14T14:25:54;1.87;;;0.90;;
14094;SDS011;18096;48.142;16.290;2024-02-14T14:28:20;2.20;;;0.90;;
14094;SDS011;18096;48.142;16.290;2024-02-14T14:30:52;1.03;;;0.80;;
14094;SDS011;18096;48.142;16.290;2024-02-14T14:33:19;2.30;;;1.00;;
14094;SDS011;18096;48.142;16.290;2024-02-14T14:35:45;2.40;;;0.93;;